Time;durP1;ratioP1;P1;durP2;ratioP2;P2;SDS_P1;SDS_P2;PMS_P1;PMS_P2;Temp;Humidity;BMP_temperature;BMP_pressure;BME280_temperature;BME280_humidity;BME280_pressure;Samples;Min_cycle;Max_cycle;Signal;HPM_P1;HPM_P2
2022/01/17 00:01:34;;;;;;;14.93;1.83;;;2.30;99.90;;;;;;5053104;28;20025;-74
2022/01/17 00:04:00;;;;;;;2.72;2.17;;;2.30;99.90;;;;;;5035466;28;20053;-74
2022/01/17 00:06:26;;;;;;;5.50;3.15;;;2.20;99.90;;;;;;5053181;28;20441;-75
2022/01/17 00:08:52;;;;;;;0.30;0.30;;;2.30;99.90;;;;;;5035284;28;20396;-74
2022/01/17 00:11:19;;;;;;;12.10;4.20;;;2.40;99.90;;;;;;5053153;28;20028;-74
2022/01/17 00:13:47;;;;;;;7.13;4.32;;;2.50;99.90;;;;;;5035442;28;20392;-74
2022/01/17 00:16:28;;;;;;;1.10;1.10;;;2.40;99.90;;;;;;5052958;28;20469;-74
2022/01/17 00:19:30;;;;;;;0.40;0.40;;;2.40;99.90;;;;;;5035008;28;20055;-74
2022/01/17 00:21:52;;;;;;;3.40;1.20;;;2.50;99.90;;;;;;5052771;28;20025;-74
2022/01/17 00:24:19;;;;;;;2.67;2.05;;;2.50;99.90;;;;;;5018636;28;20082;-74
2022/01/17 00:26:47;;;;;;;0.38;0.38;;;2.40;99.90;;;;;;5035010;28;20039;-74
2022/01/17 00:29:13;;;;;;;3.47;2.28;;;2.40;99.90;;;;;;5035034;28;20029;-74
2022/01/17 00:31:39;;;;;;;5.18;3.03;;;2.20;99.90;;;;;;5052621;28;20057;-74
2022/01/17 00:34:05;;;;;;;1.48;1.20;;;2.30;99.90;;;;;;5034929;28;20032;-74
2022/01/17 00:36:30;;;;;;;7.78;3.97;;;2.20;99.90;;;;;;5018247;28;20468;-74
2022/01/17 00:38:56;;;;;;;4.57;1.92;;;2.20;99.90;;;;;;5052840;28;20507;-74
2022/01/17 00:41:22;;;;;;;3.17;2.50;;;2.20;99.90;;;;;;5034700;28;20033;-74
2022/01/17 00:43:48;;;;;;;1.90;1.50;;;2.10;99.90;;;;;;5052641;28;20075;-74
2022/01/17 00:46:13;;;;;;;4.63;2.80;;;2.20;99.90;;;;;;5052371;28;20221;-74
2022/01/17 00:48:39;;;;;;;2.95;2.33;;;2.20;99.90;;;;;;5052508;28;20025;-74
2022/01/17 00:51:05;;;;;;;8.93;3.95;;;2.10;99.90;;;;;;5052336;28;20021;-74
2022/01/17 00:53:30;;;;;;;4.28;2.03;;;2.10;99.90;;;;;;5052558;28;20025;-74
2022/01/17 00:55:56;;;;;;;3.45;2.47;;;2.10;99.90;;;;;;5034493;28;20464;-74
2022/01/17 00:58:22;;;;;;;2.40;1.65;;;2.20;99.90;;;;;;5034622;28;20033;-73
2022/01/17 01:00:48;;;;;;;2.30;1.42;;;2.20;99.90;;;;;;5052202;28;20025;-74
2022/01/17 01:03:13;;;;;;;2.00;1.65;;;2.30;99.90;;;;;;5034432;28;20257;-74
2022/01/17 01:05:39;;;;;;;12.38;5.53;;;2.30;99.90;;;;;;5052292;28;20051;-74
2022/01/17 01:08:05;;;;;;;9.15;3.25;;;2.20;99.90;;;;;;5034350;28;20024;-74
2022/01/17 01:10:32;;;;;;;2.38;1.27;;;2.20;99.90;;;;;;5034236;28;20054;-74
2022/01/17 01:12:58;;;;;;;5.97;1.65;;;2.30;99.90;;;;;;5034372;28;20032;-74
2022/01/17 01:18:37;;;;;;;0.57;0.57;;;2.30;99.90;;;;;;5052141;28;20032;-74
2022/01/17 01:21:40;;;;;;;3.72;3.00;;;2.30;99.90;;;;;;5051818;28;20035;-74
2022/01/17 01:29:23;;;;;;;3.88;2.00;;;2.40;99.90;;;;;;5051057;28;20052;-74
2022/01/17 01:32:11;;;;;;;6.38;3.83;;;2.40;99.90;;;;;;5033892;28;20472;-74
2022/01/17 01:34:40;;;;;;;10.13;4.82;;;2.50;99.90;;;;;;5051524;28;20069;-74
2022/01/17 01:37:07;;;;;;;0.38;0.38;;;2.50;99.90;;;;;;5033953;28;20025;-74
2022/01/17 01:39:34;;;;;;;2.17;2.08;;;2.50;99.90;;;;;;5033865;28;20499;-74
2022/01/17 01:42:03;;;;;;;1.80;1.70;;;2.70;99.90;;;;;;5017308;28;20064;-74
2022/01/17 01:44:29;;;;;;;2.63;1.05;;;2.80;99.90;;;;;;5033870;28;20029;-74
2022/01/17 01:46:57;;;;;;;2.55;0.65;;;2.70;99.90;;;;;;5033827;28;20143;-74
2022/01/17 01:49:23;;;;;;;5.90;2.70;;;2.70;99.90;;;;;;5033881;28;20021;-74
2022/01/17 01:51:49;;;;;;;4.13;2.58;;;2.50;99.90;;;;;;5033717;28;20021;-74
2022/01/17 01:54:16;;;;;;;1.02;0.90;;;2.40;99.90;;;;;;5051769;28;20036;-74
2022/01/17 01:56:45;;;;;;;0.88;0.85;;;2.40;99.90;;;;;;5017233;28;20025;-74
2022/01/17 01:59:12;;;;;;;2.22;1.05;;;2.40;99.90;;;;;;5033742;28;20072;-74
2022/01/17 02:01:38;;;;;;;2.88;2.05;;;2.40;99.90;;;;;;5033465;28;20021;-74
2022/01/17 02:04:04;;;;;;;8.50;3.88;;;2.30;99.90;;;;;;5051593;28;20036;-74
2022/01/17 02:06:34;;;;;;;6.20;3.53;;;2.30;99.90;;;;;;5033458;28;20488;-74
2022/01/17 02:09:05;;;;;;;6.00;3.42;;;2.10;99.90;;;;;;5051512;28;20021;-74
2022/01/17 02:11:31;;;;;;;1.65;1.30;;;2.10;99.90;;;;;;5051370;28;20017;-74
2022/01/17 02:13:57;;;;;;;4.60;3.03;;;2.20;99.90;;;;;;5051461;28;20071;-74
2022/01/17 02:16:23;;;;;;;7.43;4.28;;;2.20;99.90;;;;;;5051470;28;20020;-74
2022/01/17 02:18:49;;;;;;;1.02;0.93;;;2.20;99.90;;;;;;5051483;28;20029;-74
2022/01/17 02:23:44;;;;;;;6.38;2.67;;;2.20;99.90;;;;;;5051456;28;20029;-74
2022/01/17 02:26:11;;;;;;;5.38;2.67;;;2.20;99.90;;;;;;5051324;28;20032;-74
2022/01/17 02:28:37;;;;;;;1.45;1.38;;;2.20;99.90;;;;;;5051275;28;20060;-74
2022/01/17 02:31:05;;;;;;;7.28;2.90;;;2.20;99.90;;;;;;5051239;28;20029;-74
2022/01/17 02:33:34;;;;;;;4.78;3.03;;;2.10;99.90;;;;;;5051388;28;20064;-74
2022/01/17 02:36:01;;;;;;;4.57;2.45;;;2.10;99.90;;;;;;5051120;28;20026;-74
2022/01/17 02:38:26;;;;;;;6.90;3.05;;;2.10;99.90;;;;;;5051241;28;20029;-74
2022/01/17 02:40:53;;;;;;;1.45;0.68;;;2.10;99.90;;;;;;5035565;28;20091;-74
2022/01/17 02:43:21;;;;;;;4.65;2.05;;;2.20;99.90;;;;;;5036982;28;20029;-74
2022/01/17 02:48:17;;;;;;;0.82;0.80;;;2.40;99.90;;;;;;5036768;28;20036;-74
2022/01/17 02:50:43;;;;;;;1.42;1.00;;;2.30;99.90;;;;;;5054800;28;20098;-74
2022/01/17 02:53:09;;;;;;;1.05;1.05;;;2.30;99.90;;;;;;5054597;28;20075;-74
2022/01/17 02:55:36;;;;;;;1.35;1.20;;;2.20;99.90;;;;;;5036645;28;20043;-74
2022/01/17 02:58:02;;;;;;;5.90;3.00;;;2.30;99.90;;;;;;5036788;28;20029;-74
2022/01/17 03:00:29;;;;;;;1.52;1.08;;;2.20;99.90;;;;;;5054469;28;20035;-74
2022/01/17 03:02:54;;;;;;;5.78;3.22;;;2.20;99.90;;;;;;5036730;28;20037;-74
2022/01/17 03:05:21;;;;;;;6.22;2.78;;;2.10;99.90;;;;;;5054470;28;20040;-74
2022/01/17 03:07:49;;;;;;;6.40;3.05;;;2.10;99.90;;;;;;5054427;28;20473;-74
2022/01/17 03:10:33;;;;;;;8.43;5.32;;;2.10;99.90;;;;;;5036521;28;20048;-74
2022/01/17 03:13:08;;;;;;;5.93;2.88;;;2.00;99.90;;;;;;5036427;28;20036;-74
2022/01/17 03:15:34;;;;;;;1.92;1.73;;;2.00;99.90;;;;;;5054232;28;20036;-74
2022/01/17 03:18:01;;;;;;;5.45;3.63;;;2.00;99.90;;;;;;5036589;28;20116;-74
2022/01/17 03:20:26;;;;;;;3.05;2.08;;;2.10;99.90;;;;;;5019847;28;20025;-74
2022/01/17 03:22:52;;;;;;;1.95;1.42;;;2.10;99.90;;;;;;5054132;28;20025;-74
2022/01/17 03:25:18;;;;;;;1.73;1.48;;;2.20;99.90;;;;;;5054024;28;20029;-74
2022/01/17 03:27:44;;;;;;;0.93;0.80;;;2.10;99.90;;;;;;5053952;28;20032;-74
2022/01/17 03:30:10;;;;;;;0.52;0.52;;;2.10;99.90;;;;;;5036142;28;20048;-74
2022/01/17 03:32:36;;;;;;;6.80;3.33;;;2.20;99.90;;;;;;5053927;28;20056;-74
2022/01/17 03:35:02;;;;;;;2.22;1.65;;;2.20;99.90;;;;;;5036189;28;20056;-74
2022/01/17 03:37:28;;;;;;;5.60;2.83;;;2.10;99.90;;;;;;5054142;28;20043;-74
2022/01/17 03:39:54;;;;;;;0.57;0.57;;;2.10;99.90;;;;;;5053662;28;20217;-74
2022/01/17 03:42:20;;;;;;;2.90;0.93;;;2.10;99.90;;;;;;5035731;28;20044;-74
2022/01/17 03:44:46;;;;;;;0.77;0.70;;;2.20;99.90;;;;;;5035850;28;20118;-74
2022/01/17 03:47:13;;;;;;;0.40;0.40;;;2.20;99.90;;;;;;5053626;28;20059;-74
2022/01/17 03:49:39;;;;;;;1.70;1.17;;;2.30;99.90;;;;;;5053623;28;20120;-74
2022/01/17 03:52:05;;;;;;;8.65;2.92;;;2.20;99.90;;;;;;5052756;28;20573;-74
2022/01/17 03:54:31;;;;;;;4.38;1.85;;;2.20;99.90;;;;;;5035998;28;20102;-74
2022/01/17 03:56:58;;;;;;;2.60;1.95;;;2.10;99.90;;;;;;5053338;28;20020;-74
2022/01/17 03:59:24;;;;;;;0.68;0.68;;;2.20;99.90;;;;;;5019146;28;20393;-74
2022/01/17 04:01:50;;;;;;;7.05;3.22;;;2.10;99.90;;;;;;5035234;28;20029;-74
2022/01/17 04:04:15;;;;;;;3.70;1.58;;;2.20;99.90;;;;;;5018926;28;20025;-74
2022/01/17 04:06:41;;;;;;;0.70;0.70;;;2.20;99.90;;;;;;5018725;28;20131;-75
2022/01/17 04:09:07;;;;;;;8.80;2.55;;;2.20;99.90;;;;;;5053193;28;20028;-75
2022/01/17 04:11:33;;;;;;;7.03;2.22;;;2.20;99.90;;;;;;5035278;28;20400;-75
2022/01/17 04:13:59;;;;;;;0.70;0.70;;;2.20;99.90;;;;;;5035668;28;20029;-75
2022/01/17 04:16:24;;;;;;;0.90;0.90;;;2.30;99.90;;;;;;5053083;28;20037;-75
2022/01/17 04:18:52;;;;;;;4.30;2.08;;;2.30;99.90;;;;;;5035278;28;20028;-75
2022/01/17 04:21:18;;;;;;;5.75;2.97;;;2.30;99.90;;;;;;5035031;28;20060;-75
2022/01/17 04:23:44;;;;;;;4.43;2.58;;;2.20;99.90;;;;;;5034998;28;20029;-74
2022/01/17 04:26:09;;;;;;;1.00;1.00;;;2.10;99.90;;;;;;5034913;28;20035;-74
2022/01/17 04:28:35;;;;;;;0.40;0.40;;;2.10;99.90;;;;;;5052970;28;20031;-75
2022/01/17 04:31:01;;;;;;;2.83;2.10;;;2.20;99.90;;;;;;5035028;28;20431;-74
2022/01/17 04:33:26;;;;;;;0.90;0.90;;;2.10;99.90;;;;;;5035123;28;20025;-74
2022/01/17 04:35:52;;;;;;;3.10;2.00;;;2.10;99.90;;;;;;5018170;28;20032;-75
2022/01/17 04:38:19;;;;;;;4.85;2.17;;;2.10;99.90;;;;;;5052558;28;20033;-75
2022/01/17 04:40:48;;;;;;;1.23;1.15;;;2.10;99.90;;;;;;5052740;28;20106;-75
2022/01/17 04:43:22;;;;;;;1.33;1.23;;;2.20;99.90;;;;;;5052604;28;20133;-75
2022/01/17 04:45:49;;;;;;;1.15;1.13;;;2.20;99.90;;;;;;5052515;28;20032;-75
2022/01/17 04:48:15;;;;;;;2.67;1.35;;;2.20;99.90;;;;;;5034615;28;20021;-75
2022/01/17 04:50:41;;;;;;;3.08;1.83;;;2.20;99.90;;;;;;5034469;28;20480;-75
2022/01/17 04:53:08;;;;;;;1.08;1.08;;;2.20;99.90;;;;;;5052563;28;20400;-75
2022/01/17 04:55:36;;;;;;;3.30;2.05;;;2.10;99.90;;;;;;5034371;28;20516;-75
2022/01/17 04:58:02;;;;;;;3.35;1.90;;;2.10;99.90;;;;;;5034625;28;20117;-74
2022/01/17 05:00:28;;;;;;;0.93;0.82;;;2.10;99.90;;;;;;5052017;28;20048;-75
2022/01/17 05:02:54;;;;;;;1.98;1.27;;;2.20;99.90;;;;;;5052111;28;20025;-75
2022/01/17 05:05:21;;;;;;;1.30;1.13;;;2.20;99.90;;;;;;5052243;28;20029;-74
2022/01/17 05:07:47;;;;;;;1.73;0.47;;;2.20;99.90;;;;;;5034346;28;20028;-75
2022/01/17 05:10:15;;;;;;;0.80;0.80;;;2.30;99.90;;;;;;5034297;28;20029;-75
2022/01/17 05:12:42;;;;;;;0.68;0.65;;;2.30;99.90;;;;;;5034130;28;20028;-75
2022/01/17 05:15:18;;;;;;;1.27;1.27;;;2.30;99.90;;;;;;5052203;28;20051;-75
2022/01/17 05:17:56;;;;;;;0.40;0.40;;;2.30;99.90;;;;;;5052281;28;20179;-75
2022/01/17 05:20:22;;;;;;;1.17;1.08;;;2.40;99.90;;;;;;5034215;28;20067;-74
2022/01/17 05:22:48;;;;;;;8.25;2.88;;;2.50;99.90;;;;;;5051940;28;20025;-74
2022/01/17 05:25:13;;;;;;;1.73;1.55;;;2.50;99.90;;;;;;5051826;28;20025;-75
2022/01/17 05:27:39;;;;;;;0.68;0.68;;;2.40;99.90;;;;;;5033991;28;20024;-75
2022/01/17 05:30:08;;;;;;;0.43;0.43;;;2.50;99.90;;;;;;5051959;28;20332;-75
2022/01/17 05:32:35;;;;;;;0.45;0.43;;;2.60;99.90;;;;;;5033933;28;20025;-75
2022/01/17 05:35:01;;;;;;;0.50;0.50;;;2.60;99.90;;;;;;5034028;28;20029;-75
2022/01/17 05:37:26;;;;;;;0.70;0.70;;;2.60;99.90;;;;;;5033674;28;20451;-75
2022/01/17 05:39:52;;;;;;;0.90;0.88;;;2.70;99.90;;;;;;5051708;28;20033;-75
2022/01/17 05:42:18;;;;;;;0.77;0.63;;;2.70;99.90;;;;;;5033856;28;20033;-75
2022/01/17 05:44:48;;;;;;;0.35;0.35;;;2.70;99.90;;;;;;5017418;28;20029;-75
2022/01/17 05:47:15;;;;;;;0.60;0.60;;;2.70;99.90;;;;;;5033695;28;20029;-75
2022/01/17 05:49:41;;;;;;;0.82;0.80;;;2.80;99.90;;;;;;5034042;28;20028;-75
2022/01/17 05:52:08;;;;;;;0.30;0.30;;;2.80;99.90;;;;;;5051716;28;20037;-75
2022/01/17 05:54:34;;;;;;;4.22;1.40;;;2.80;99.90;;;;;;5051629;28;20029;-75
2022/01/17 05:57:00;;;;;;;2.85;1.50;;;2.80;99.90;;;;;;5033549;28;20018;-75
2022/01/17 05:59:26;;;;;;;0.50;0.50;;;2.70;99.90;;;;;;5017129;28;20151;-75
2022/01/17 06:01:52;;;;;;;1.88;0.93;;;2.70;99.90;;;;;;5033206;28;20495;-75
2022/01/17 06:04:18;;;;;;;1.48;0.98;;;2.80;99.90;;;;;;5033617;28;20025;-75
2022/01/17 06:06:43;;;;;;;1.65;1.30;;;2.80;99.90;;;;;;5051308;28;20114;-75
2022/01/17 06:09:09;;;;;;;0.32;0.32;;;2.80;99.90;;;;;;5051540;28;20027;-75
2022/01/17 06:11:35;;;;;;;0.70;0.70;;;2.70;99.90;;;;;;5051320;28;20025;-75
2022/01/17 06:14:01;;;;;;;2.13;1.13;;;2.80;99.90;;;;;;5033511;28;20028;-75
2022/01/17 06:16:27;;;;;;;1.02;1.02;;;2.90;99.90;;;;;;5036289;28;20072;-75
2022/01/17 06:18:52;;;;;;;3.95;0.70;;;2.90;99.90;;;;;;5055180;28;20040;-75
2022/01/17 06:21:18;;;;;;;0.20;0.20;;;2.90;99.90;;;;;;5055130;28;20104;-74
2022/01/17 06:23:44;;;;;;;0.35;0.35;;;2.80;99.90;;;;;;5021022;28;20049;-75
2022/01/17 06:26:09;;;;;;;0.57;0.57;;;2.90;99.90;;;;;;5020714;28;20033;-75
2022/01/17 06:28:35;;;;;;;0.77;0.77;;;2.90;99.90;;;;;;5037345;28;20434;-75
2022/01/17 06:31:01;;;;;;;0.47;0.47;;;2.90;99.90;;;;;;5055046;28;20510;-75
2022/01/17 06:33:27;;;;;;;1.77;1.15;;;2.90;99.90;;;;;;5036892;28;20518;-75
2022/01/17 06:35:53;;;;;;;0.52;0.52;;;2.90;99.90;;;;;;5062707;28;20020;-75
2022/01/17 06:38:19;;;;;;;2.25;1.17;;;2.90;99.90;;;;;;5024820;28;20020;-75
2022/01/17 06:40:44;;;;;;;0.30;0.30;;;2.90;99.90;;;;;;5065063;28;20048;-75
2022/01/17 06:43:10;;;;;;;0.63;0.63;;;2.90;99.90;;;;;;5047722;28;20051;-74
2022/01/17 06:45:38;;;;;;;2.17;1.23;;;2.90;99.90;;;;;;5054591;28;20055;-75
2022/01/17 06:48:05;;;;;;;1.02;0.82;;;2.90;99.90;;;;;;5060275;28;20082;-75
2022/01/17 06:50:32;;;;;;;1.20;1.10;;;2.90;99.90;;;;;;5047857;28;20017;-75
2022/01/17 06:52:58;;;;;;;2.17;1.38;;;2.90;99.90;;;;;;5056287;28;20481;-75
2022/01/17 06:55:24;;;;;;;1.45;0.75;;;2.80;99.90;;;;;;5074423;28;20024;-75
2022/01/17 06:57:50;;;;;;;0.63;0.63;;;2.80;99.90;;;;;;5040611;28;20448;-75
2022/01/17 07:00:16;;;;;;;3.03;1.95;;;2.80;99.90;;;;;;5054322;28;20361;-75
2022/01/17 07:02:42;;;;;;;0.60;0.60;;;2.80;99.90;;;;;;5054090;28;20017;-74
2022/01/17 07:05:08;;;;;;;1.77;1.20;;;2.90;99.90;;;;;;5019873;28;20031;-75
2022/01/17 07:07:34;;;;;;;1.75;0.73;;;2.90;99.90;;;;;;5054167;28;20100;-75
2022/01/17 07:09:59;;;;;;;0.30;0.30;;;2.90;99.90;;;;;;5054237;28;20385;-75
2022/01/17 07:12:25;;;;;;;0.68;0.68;;;2.90;99.90;;;;;;5054632;28;20036;-75
2022/01/17 07:14:51;;;;;;;1.42;1.33;;;3.00;99.90;;;;;;5051711;28;20548;-75
2022/01/17 07:17:17;;;;;;;0.47;0.47;;;2.90;99.90;;;;;;5073917;28;20027;-75
2022/01/17 07:19:42;;;;;;;4.03;1.65;;;3.00;99.90;;;;;;5056264;28;20029;-75
2022/01/17 07:22:08;;;;;;;3.40;2.35;;;3.00;99.90;;;;;;5066308;28;20104;-75
2022/01/17 07:24:37;;;;;;;6.32;1.73;;;3.00;99.90;;;;;;5054069;28;20488;-75
2022/01/17 07:27:03;;;;;;;0.43;0.43;;;3.00;99.90;;;;;;5052566;28;20404;-75
2022/01/17 07:29:29;;;;;;;0.30;0.30;;;3.00;99.90;;;;;;5053897;28;20031;-75
2022/01/17 07:31:55;;;;;;;0.30;0.30;;;3.00;99.90;;;;;;5040810;28;20531;-75
2022/01/17 07:34:21;;;;;;;0.20;0.20;;;3.10;99.90;;;;;;5056818;28;20047;-75
2022/01/17 07:36:47;;;;;;;1.23;1.13;;;3.10;99.90;;;;;;5038543;28;20025;-75
2022/01/17 07:39:13;;;;;;;0.28;0.28;;;3.00;99.90;;;;;;5039842;28;20081;-75
2022/01/17 07:41:39;;;;;;;1.92;1.23;;;3.10;99.90;;;;;;5068836;28;20376;-74
2022/01/17 07:44:07;;;;;;;0.30;0.30;;;3.10;99.90;;;;;;5051791;28;20036;-74
2022/01/17 07:46:47;;;;;;;0.65;0.65;;;3.20;99.90;;;;;;5051062;28;20025;-74
2022/01/17 07:49:19;;;;;;;0.80;0.80;;;3.20;99.90;;;;;;5068945;28;20025;-74
2022/01/17 07:51:46;;;;;;;3.05;1.65;;;3.10;99.90;;;;;;5037915;28;20048;-74
2022/01/17 07:54:15;;;;;;;0.38;0.38;;;3.10;99.90;;;;;;5052586;28;20026;-74
2022/01/17 07:56:42;;;;;;;2.35;1.15;;;3.10;99.90;;;;;;5052224;28;20022;-74
2022/01/17 07:59:09;;;;;;;3.50;1.20;;;3.10;99.90;;;;;;5034713;28;20029;-74
2022/01/17 08:01:36;;;;;;;1.48;1.38;;;3.10;99.90;;;;;;5034410;28;20044;-74
2022/01/17 08:04:03;;;;;;;0.20;0.20;;;3.20;99.90;;;;;;5034344;28;20507;-74
2022/01/17 08:06:28;;;;;;;0.30;0.30;;;3.10;99.90;;;;;;5042106;28;20115;-74
2022/01/17 08:08:55;;;;;;;1.88;1.38;;;3.10;99.90;;;;;;5034270;28;20479;-74
2022/01/17 08:11:21;;;;;;;0.43;0.43;;;3.20;99.90;;;;;;5051598;28;20040;-74
2022/01/17 08:13:47;;;;;;;1.75;1.65;;;3.20;99.90;;;;;;5017740;28;20075;-74
2022/01/17 08:16:14;;;;;;;0.88;0.82;;;3.30;99.90;;;;;;5033671;28;20029;-74
2022/01/17 08:18:41;;;;;;;0.80;0.80;;;3.30;99.90;;;;;;5041716;28;20020;-74
2022/01/17 08:21:07;;;;;;;1.23;0.85;;;3.30;99.90;;;;;;5058804;28;20021;-74
2022/01/17 08:23:33;;;;;;;0.50;0.50;;;3.40;99.90;;;;;;5051866;28;20036;-74
2022/01/17 08:25:59;;;;;;;0.47;0.47;;;3.30;99.90;;;;;;5033249;28;20037;-74
2022/01/17 08:28:25;;;;;;;1.35;0.93;;;3.30;99.90;;;;;;5051556;28;20104;-74
2022/01/17 08:30:50;;;;;;;0.30;0.30;;;3.40;99.90;;;;;;5051173;28;20037;-74
2022/01/17 08:33:16;;;;;;;0.25;0.25;;;3.40;99.90;;;;;;5050181;28;20065;-74
2022/01/17 08:35:42;;;;;;;0.85;0.85;;;3.40;99.90;;;;;;5033715;28;20021;-74
2022/01/17 08:38:08;;;;;;;1.38;0.93;;;3.50;99.90;;;;;;5012728;28;1079346;-74
2022/01/17 08:40:34;;;;;;;0.82;0.82;;;3.50;99.90;;;;;;5039118;28;20025;-74
2022/01/17 08:42:59;;;;;;;0.85;0.70;;;3.60;99.90;;;;;;5050980;28;20067;-74
2022/01/17 08:45:26;;;;;;;0.50;0.50;;;3.60;99.90;;;;;;5050943;28;20017;-74
2022/01/17 08:47:52;;;;;;;0.47;0.47;;;3.60;99.90;;;;;;5057414;28;20177;-75
2022/01/17 08:50:20;;;;;;;1.95;1.25;;;3.60;99.90;;;;;;5052075;28;20083;-74
2022/01/17 08:52:47;;;;;;;0.30;0.30;;;3.70;99.90;;;;;;5050805;28;20037;-74
2022/01/17 08:55:15;;;;;;;1.38;1.00;;;3.70;99.90;;;;;;5055674;28;20079;-74
2022/01/17 08:57:41;;;;;;;3.55;2.38;;;3.70;99.90;;;;;;5049834;28;20025;-74
2022/01/17 09:00:13;;;;;;;5.43;1.40;;;3.70;99.90;;;;;;5042883;28;20017;-74
2022/01/17 09:02:39;;;;;;;0.38;0.38;;;3.70;99.90;;;;;;5050779;28;20365;-74
2022/01/17 09:05:05;;;;;;;3.00;1.83;;;3.70;99.90;;;;;;5051119;28;20027;-74
2022/01/17 09:07:31;;;;;;;0.63;0.63;;;3.80;99.90;;;;;;5042135;28;20082;-74
2022/01/17 09:09:57;;;;;;;0.85;0.85;;;3.80;99.90;;;;;;5050926;28;20434;-74
2022/01/17 09:12:23;;;;;;;0.60;0.60;;;3.90;99.90;;;;;;5039527;28;20029;-75
2022/01/17 09:14:48;;;;;;;0.50;0.50;;;3.90;99.90;;;;;;5051124;28;20082;-74
2022/01/17 09:17:14;;;;;;;4.13;1.25;;;4.00;99.90;;;;;;5050424;28;20388;-74
2022/01/17 09:19:42;;;;;;;1.75;1.30;;;4.00;99.90;;;;;;5042386;28;20082;-74
2022/01/17 09:22:10;;;;;;;1.75;1.02;;;3.90;99.90;;;;;;5050417;28;20021;-74
2022/01/17 09:24:38;;;;;;;0.35;0.35;;;3.90;99.90;;;;;;5050690;28;20029;-74
2022/01/17 09:27:05;;;;;;;2.55;2.03;;;3.90;99.90;;;;;;5050634;28;20025;-75
2022/01/17 09:29:32;;;;;;;3.10;2.08;;;3.90;99.90;;;;;;5050658;28;20025;-74
2022/01/17 09:31:59;;;;;;;0.65;0.63;;;3.80;99.90;;;;;;5050307;28;20112;-74
2022/01/17 09:34:26;;;;;;;0.73;0.73;;;3.90;99.90;;;;;;5032571;28;20020;-74
2022/01/17 09:36:52;;;;;;;0.40;0.40;;;3.90;99.90;;;;;;5038774;28;20053;-74
2022/01/17 09:39:19;;;;;;;0.75;0.75;;;3.90;99.90;;;;;;5040105;28;20466;-74
2022/01/17 09:41:45;;;;;;;0.30;0.30;;;4.00;99.90;;;;;;5042525;28;20032;-74
2022/01/17 09:44:10;;;;;;;0.70;0.70;;;4.00;99.90;;;;;;5050090;28;20196;-74
2022/01/17 09:46:47;;;;;;;0.63;0.45;;;3.90;99.90;;;;;;5050929;28;20443;-74
2022/01/17 09:54:25;;;;;;;0.22;0.22;;;3.50;99.90;;;;;;5038143;28;20021;-74
2022/01/17 09:56:54;;;;;;;0.60;0.60;;;3.50;99.90;;;;;;5037003;28;20025;-74
2022/01/17 09:59:20;;;;;;;0.30;0.30;;;3.50;99.90;;;;;;5054213;28;20477;-74
2022/01/17 10:01:46;;;;;;;3.13;2.17;;;3.50;99.90;;;;;;5054436;28;20025;-74
2022/01/17 10:04:13;;;;;;;1.48;1.38;;;3.50;99.90;;;;;;5049687;28;20035;-74
2022/01/17 10:06:40;;;;;;;0.93;0.85;;;3.50;99.90;;;;;;5045752;28;20568;-74
2022/01/17 10:09:21;;;;;;;1.55;0.95;;;3.40;99.90;;;;;;5044148;28;20523;-74
2022/01/17 10:12:09;;;;;;;1.75;1.48;;;3.40;99.90;;;;;;5036752;28;20025;-74
2022/01/17 10:14:59;;;;;;;0.73;0.73;;;3.50;99.90;;;;;;5054052;28;20047;-74
2022/01/17 10:17:42;;;;;;;0.43;0.43;;;3.60;99.90;;;;;;5032038;28;20438;-74
2022/01/17 10:20:10;;;;;;;1.90;1.80;;;3.80;99.90;;;;;;5054171;28;20025;-74
2022/01/17 10:22:47;;;;;;;0.38;0.38;;;3.90;99.90;;;;;;5042760;28;20049;-74
2022/01/17 10:25:58;;;;;;;1.42;0.80;;;4.10;99.90;;;;;;5020104;28;20013;-75
2022/01/17 10:34:53;;;;;;;0.30;0.30;;;4.60;99.90;;;;;;5053729;28;20044;-74
2022/01/17 10:36:20;;;;;;;4.47;2.75;;;4.80;99.90;;;;;;5051791;28;20476;-74
2022/01/17 10:39:03;;;;;;;0.40;0.40;;;4.80;99.90;;;;;;5040624;28;20033;-74
2022/01/17 10:41:28;;;;;;;;;;;4.70;99.90;;;;;;5054346;28;20083;-74
2022/01/17 10:43:54;;;;;;;1.65;1.27;;;4.60;99.90;;;;;;5053491;28;19912;-74
2022/01/17 10:46:22;;;;;;;1.08;0.75;;;4.40;99.90;;;;;;5047098;28;20025;-74
2022/01/17 10:48:56;;;;;;;0.50;0.50;;;4.40;99.90;;;;;;5053068;28;20357;-74
2022/01/17 10:51:34;;;;;;;1.02;0.93;;;4.60;99.90;;;;;;5024360;28;20025;-74
2022/01/17 10:54:20;;;;;;;0.40;0.40;;;5.10;99.90;;;;;;5026593;28;20020;-74
2022/01/17 10:57:02;;;;;;;0.30;0.30;;;5.10;99.90;;;;;;5029891;28;20086;-74
2022/01/17 10:59:30;;;;;;;3.63;1.15;;;6.00;99.90;;;;;;5048970;28;20020;-74
2022/01/17 11:01:58;;;;;;;1.58;1.20;;;7.10;99.90;;;;;;5055730;28;20036;-74
2022/01/17 11:04:35;;;;;;;0.95;0.77;;;7.70;99.90;;;;;;5052599;28;20023;-74
2022/01/17 11:07:08;;;;;;;2.47;1.13;;;8.10;99.90;;;;;;5035962;28;20025;-74
2022/01/17 11:09:57;;;;;;;1.60;0.68;;;7.90;99.40;;;;;;5038555;28;20033;-74
2022/01/17 11:12:28;;;;;;;0.20;0.20;;;7.40;99.90;;;;;;5049853;28;20031;-74
2022/01/17 11:14:56;;;;;;;1.90;0.80;;;7.50;99.90;;;;;;5046878;28;20029;-74
2022/01/17 11:17:34;;;;;;;1.25;0.90;;;7.70;99.90;;;;;;5053147;28;20025;-74
2022/01/17 11:20:06;;;;;;;0.95;0.80;;;7.90;99.80;;;;;;5045822;28;20488;-74
2022/01/17 11:22:43;;;;;;;0.70;0.70;;;8.10;96.40;;;;;;5046853;28;20477;-74
2022/01/17 11:25:17;;;;;;;3.42;1.05;;;7.90;96.10;;;;;;5052898;28;20435;-74
2022/01/17 11:27:43;;;;;;;2.40;1.10;;;7.40;96.40;;;;;;5052811;28;20032;-74
2022/01/17 11:30:10;;;;;;;2.55;0.45;;;6.70;97.90;;;;;;5052555;28;20036;-74
2022/01/17 11:32:36;;;;;;;1.80;1.70;;;6.60;99.70;;;;;;5050284;28;20033;-74
2022/01/17 11:35:03;;;;;;;1.08;0.98;;;6.20;99.90;;;;;;5052031;28;20049;-74
2022/01/17 11:37:34;;;;;;;0.75;0.75;;;6.10;99.90;;;;;;5042834;28;20021;-74
2022/01/17 11:40:00;;;;;;;1.17;0.40;;;7.40;99.90;;;;;;5052393;28;20044;-74
2022/01/17 11:42:47;;;;;;;0.40;0.40;;;7.80;97.00;;;;;;5020710;28;20369;-74
2022/01/17 11:45:22;;;;;;;8.27;3.90;;;8.00;96.10;;;;;;5052330;28;20021;-74
2022/01/17 11:48:01;;;;;;;0.25;0.25;;;8.00;95.80;;;;;;5052543;28;20033;-74
2022/01/17 11:50:27;;;;;;;0.68;0.68;;;8.70;95.00;;;;;;5042908;28;20096;-74
2022/01/17 11:52:54;;;;;;;1.50;0.90;;;9.20;93.90;;;;;;5052384;28;20521;-74
2022/01/17 11:55:38;;;;;;;3.45;1.60;;;9.10;91.90;;;;;;5052189;28;20100;-74
2022/01/17 11:58:42;;;;;;;0.20;0.20;;;8.50;91.80;;;;;;5049733;28;20395;-74
2022/01/17 12:01:08;;;;;;;0.85;0.60;;;7.80;93.00;;;;;;4993406;28;20111;-74
2022/01/17 12:03:49;;;;;;;2.65;0.65;;;7.40;93.80;;;;;;5046326;28;20159;-74
2022/01/17 12:06:33;;;;;;;0.47;0.47;;;7.30;93.70;;;;;;5044542;28;20488;-74
2022/01/17 12:09:20;;;;;;;0.28;0.28;;;7.60;93.90;;;;;;5036987;28;20033;-74
2022/01/17 12:11:53;;;;;;;1.25;0.82;;;7.70;93.50;;;;;;5052285;28;20013;-74
2022/01/17 12:14:30;;;;;;;1.67;1.45;;;7.30;92.90;;;;;;5046548;28;20036;-74
2022/01/17 12:17:20;;;;;;;0.20;0.20;;;7.10;94.10;;;;;;5052057;28;20025;-74
2022/01/17 12:20:04;;;;;;;0.57;0.57;;;7.10;94.20;;;;;;5034592;28;20114;-74
2022/01/17 12:22:31;;;;;;;0.63;0.63;;;6.50;94.80;;;;;;5052017;28;20528;-74
2022/01/17 12:25:00;;;;;;;0.50;0.50;;;6.40;95.20;;;;;;5051743;28;20047;-74
2022/01/17 12:27:28;;;;;;;0.43;0.43;;;6.50;94.90;;;;;;5048305;28;20071;-74
2022/01/17 12:30:06;;;;;;;2.22;1.08;;;6.50;95.20;;;;;;5038951;28;20052;-74
2022/01/17 12:32:35;;;;;;;0.47;0.47;;;6.60;94.60;;;;;;5048460;28;20029;-74
2022/01/17 12:35:04;;;;;;;6.25;1.08;;;6.60;94.70;;;;;;5051265;28;20021;-74
2022/01/17 12:37:53;;;;;;;2.95;0.82;;;6.40;94.90;;;;;;5028823;28;20106;-74
2022/01/17 12:40:30;;;;;;;1.23;0.90;;;6.50;95.40;;;;;;5029965;28;20355;-74
2022/01/17 12:43:16;;;;;;;0.32;0.32;;;6.40;95.20;;;;;;5036582;28;20075;-74
2022/01/17 12:45:47;;;;;;;4.18;2.55;;;6.30;95.60;;;;;;5045046;28;20107;-74
2022/01/17 12:48:16;;;;;;;0.30;0.30;;;6.20;95.90;;;;;;5051734;28;20060;-74
2022/01/17 12:50:44;;;;;;;0.98;0.77;;;6.20;96.10;;;;;;5051212;28;20104;-75
2022/01/17 12:53:13;;;;;;;1.35;1.25;;;6.10;96.40;;;;;;5051368;28;20061;-74
2022/01/17 12:55:45;;;;;;;0.75;0.68;;;6.00;96.40;;;;;;5042079;28;20025;-74
2022/01/17 12:58:29;;;;;;;0.20;0.20;;;6.10;96.90;;;;;;5051394;28;20077;-74
2022/01/17 13:00:57;;;;;;;0.30;0.30;;;6.10;97.20;;;;;;5033704;28;20037;-74
2022/01/17 13:03:29;;;;;;;0.65;0.50;;;6.40;97.10;;;;;;5024199;28;20033;-74
2022/01/17 13:05:56;;;;;;;1.23;0.82;;;6.20;96.70;;;;;;5045337;28;20028;-74
2022/01/17 13:08:23;;;;;;;0.40;0.40;;;6.10;97.00;;;;;;5044321;28;20150;-74
2022/01/17 13:10:49;;;;;;;0.55;0.50;;;6.10;97.20;;;;;;5046839;28;20025;-73
2022/01/17 13:13:16;;;;;;;8.32;1.42;;;6.00;97.10;;;;;;5050801;28;20074;-73
2022/01/17 13:15:57;;;;;;;0.38;0.30;;;6.00;97.20;;;;;;5046998;28;20439;-74
2022/01/17 13:18:24;;;;;;;1.65;1.25;;;5.90;97.20;;;;;;5042748;28;20112;-74
2022/01/17 13:20:50;;;;;;;2.53;1.25;;;5.90;97.40;;;;;;5040782;28;20120;-74
2022/01/17 13:23:25;;;;;;;0.40;0.40;;;5.80;97.60;;;;;;5033808;28;20124;-74
2022/01/17 13:25:50;;;;;;;8.57;2.38;;;5.90;97.50;;;;;;5047249;28;20025;-74
2022/01/17 13:28:16;;;;;;;5.40;3.05;;;5.80;97.80;;;;;;5043368;28;20025;-74
2022/01/17 13:30:42;;;;;;;1.08;0.80;;;5.80;97.70;;;;;;5046893;28;20062;-74